Monday, August 20, 2018, 12:17 AM CDT
Back to Local

KIKK, Kankakee, Greater Kankakee Airport

Location: Kankakee, IL, United States Lat: 41.071
Local Time: 12:17 AM CDT ( 5:17 GMT) Lon: -87.846
Time Zone: US/Central Elev: 629 ft

Show me the last for .
Show Decoded

2018-08-19 23:35 METAR KIKK 200435Z AUTO 12006KT 10SM CLR 22/19 A2996 RMK AO2 T02180189 =
2018-08-19 23:15 METAR KIKK 200415Z AUTO 11005KT 10SM CLR 22/19 A2996 RMK AO2 T02160189 =
2018-08-19 22:55 METAR KIKK 200355Z AUTO 13005KT 10SM CLR 22/19 A2997 RMK AO2 T02190190 =
2018-08-19 22:35 METAR KIKK 200335Z AUTO 11006KT 10SM CLR 22/19 A2996 RMK AO2 T02190188 =
2018-08-19 22:15 METAR KIKK 200315Z AUTO 11005KT 10SM CLR 21/18 A2997 RMK AO2 T02140183 =
2018-08-19 21:55 METAR KIKK 200255Z AUTO 12004KT 10SM CLR 22/18 A2997 RMK AO2 T02160183 =
2018-08-19 21:35 METAR KIKK 200235Z AUTO 12004KT 10SM CLR 23/19 A2996 RMK AO2 T02260186 =
2018-08-19 21:15 METAR KIKK 200215Z AUTO 13004KT 10SM CLR 23/19 A2995 RMK AO2 T02270187 =
2018-08-19 20:55 METAR KIKK 200155Z AUTO 13003KT 10SM CLR 23/19 A2995 RMK AO2 T02330188 =
2018-08-19 20:35 METAR KIKK 200135Z AUTO 12004KT 10SM CLR 23/19 A2994 RMK AO2 T02310189 =
2018-08-19 20:15 METAR KIKK 200115Z AUTO 00000KT 10SM CLR 24/19 A2994 RMK AO2 T02400188 =
2018-08-19 19:55 METAR KIKK 200055Z AUTO 09005KT 10SM CLR 24/19 A2994 RMK AO2 T02380189 =
2018-08-19 19:35 METAR KIKK 200035Z AUTO 12003KT 10SM CLR 25/19 A2994 RMK AO2 T02470191 =
2018-08-19 19:15 METAR KIKK 200015Z AUTO 15003KT 10SM CLR 26/19 A2995 RMK AO2 T02590190 =
2018-08-19 18:55 METAR KIKK 192355Z AUTO 13004KT 10SM CLR 26/19 A2994 RMK AO2 T02590191 10302
                 20259 =
2018-08-19 18:35 METAR KIKK 192335Z AUTO 15005KT 10SM CLR 27/19 A2994 RMK AO2 T02660185 =
2018-08-19 18:15 METAR KIKK 192315Z AUTO 13004KT 10SM CLR 27/18 A2994 RMK AO2 T02700184 =
2018-08-19 17:55 METAR KIKK 192255Z AUTO 12004KT 10SM CLR 27/18 A2994 RMK AO2 T02740176 =
2018-08-19 17:35 METAR KIKK 192235Z AUTO 11005KT 10SM CLR 28/17 A2994 RMK AO2 T02810173 =
2018-08-19 17:15 METAR KIKK 192215Z AUTO 12007KT 10SM CLR 29/16 A2993 RMK AO2 T02860163 =
2018-08-19 16:55 METAR KIKK 192155Z AUTO 11005KT 10SM CLR 30/15 A2994 RMK AO2 T02950153 =
2018-08-19 16:35 METAR KIKK 192135Z AUTO 11004KT 10SM CLR 30/16 A2994 RMK AO2 T02990158 =
2018-08-19 16:15 METAR KIKK 192115Z AUTO 11005G08KT 10SM CLR 30/17 A2994 RMK AO2 T02990167 =
2018-08-19 15:55 METAR KIKK 192055Z AUTO 13004KT 10SM CLR 30/16 A2995 RMK AO2 T03000163 =
2018-08-19 15:35 METAR KIKK 192035Z AUTO 10006KT 10SM SCT050 SCT065 30/17 A2995 RMK AO2 T03000171
                 =
2018-08-19 15:15 METAR KIKK 192015Z AUTO 10007KT 10SM SCT048 BKN065 30/17 A2996 RMK AO2 T03010171
                 =
2018-08-19 14:55 METAR KIKK 191955Z AUTO 12005KT 10SM SCT050 30/17 A2997 RMK AO2 T02970173 =
2018-08-19 14:35 METAR KIKK 191935Z AUTO 15006KT 10SM SCT050 30/18 A2998 RMK AO2 T02970175 =
2018-08-19 14:15 METAR KIKK 191915Z AUTO 07003KT 10SM SCT055 29/17 A2999 RMK AO2 T02850170 =
2018-08-19 13:55 METAR KIKK 191855Z AUTO 10005KT 10SM SCT045 BKN055 29/17 A2999 RMK AO2 T02880169
                 =
2018-08-19 13:35 METAR KIKK 191835Z AUTO 08005KT 10SM SCT045 SCT055 29/18 A2999 RMK AO2 T02900176
                 =
2018-08-19 13:15 METAR KIKK 191815Z AUTO 10005KT 10SM SCT038 28/18 A3000 RMK AO2 T02810176 =
2018-08-19 12:55 METAR KIKK 191755Z AUTO 13003KT 10SM BKN038 28/18 A3000 RMK AO2 T02780182 10286
                 20167 =
2018-08-19 12:35 METAR KIKK 191735Z AUTO 11006KT 10SM SCT038 28/18 A3000 RMK AO2 T02810180 =
2018-08-19 12:15 METAR KIKK 191715Z AUTO 16005KT 10SM SCT036 28/18 A3001 RMK AO2 T02800179 =
2018-08-19 11:55 METAR KIKK 191655Z AUTO 12005KT 10SM SCT034 27/19 A3002 RMK AO2 T02730186 =
2018-08-19 11:35 METAR KIKK 191635Z AUTO 21003KT 10SM SCT026 SCT032 27/19 A3002 RMK AO2 T02710186
                 =
2018-08-19 11:15 METAR KIKK 191615Z AUTO 14004KT 10SM SCT024 BKN032 27/19 A3001 RMK AO2 T02680193
                 =
2018-08-19 10:55 METAR KIKK 191555Z AUTO 14004KT 10SM SCT024 26/20 A3001 RMK AO2 T02610199 =
2018-08-19 10:35 METAR KIKK 191535Z AUTO 17003KT 10SM CLR 24/22 A3001 RMK AO2 T02380217 =
2018-08-19 10:15 METAR KIKK 191515Z AUTO 14004KT 10SM CLR 23/22 A3001 RMK AO2 T02330219 =
2018-08-19 09:55 METAR KIKK 191455Z AUTO 12004KT 10SM CLR 23/22 A3001 RMK AO2 T02310218 =
2018-08-19 09:35 METAR KIKK 191435Z AUTO 11003KT 10SM CLR 22/22 A3001 RMK AO2 T02220219 =
2018-08-19 09:15 METAR KIKK 191415Z AUTO 00000KT 7SM SCT004 21/21 A3001 RMK AO2 T02090205 =
2018-08-19 08:55 METAR KIKK 191355Z AUTO 00000KT 5SM BR BKN002 20/20 A3002 RMK AO2 T02010197 =
2018-08-19 08:35 METAR KIKK 191335Z AUTO 00000KT 1 1/4SM BR OVC002 20/19 A3001 RMK AO2 T01960192
                 =
2018-08-19 08:15 METAR KIKK 191315Z AUTO 00000KT 1/4SM FG OVC002 19/18 A3000 RMK AO2 T01880184 =
2018-08-19 07:55 METAR KIKK 191255Z AUTO 00000KT M1/4SM FG OVC002 18/18 A3000 RMK AO2 T01820179 =
2018-08-19 07:35 METAR KIKK 191235Z AUTO 00000KT 1 1/4SM BR OVC002 18/17 A3000 RMK AO2 T01750171
                 =
2018-08-19 07:15 METAR KIKK 191215Z AUTO 00000KT M1/4SM FG OVC002 17/17 A2999 RMK AO2 T01700166 =
2018-08-19 06:55 METAR KIKK 191155Z AUTO 00000KT M1/4SM FG OVC002 17/16 A2999 RMK AO2 T01660162
                 10188 20159 =
2018-08-19 06:35 METAR KIKK 191135Z AUTO 00000KT M1/4SM FG OVC002 17/16 A3000 RMK AO2 T01650160 =
2018-08-19 06:15 METAR KIKK 191115Z AUTO 00000KT M1/4SM FG OVC002 16/16 A2999 RMK AO2 T01630160 =
2018-08-19 05:55 METAR KIKK 191055Z AUTO 00000KT 1/4SM FG OVC002 16/16 A3000 RMK AO2 T01610157 =
2018-08-19 05:35 METAR KIKK 191035Z AUTO 00000KT M1/4SM FG OVC002 16/16 A2999 RMK AO2 T01620158 =
2018-08-19 05:15 METAR KIKK 191015Z AUTO 00000KT M1/4SM FG OVC002 17/16 A2999 RMK AO2 T01650161 =
2018-08-19 04:55 METAR KIKK 190955Z AUTO 00000KT M1/4SM FG OVC002 17/16 A2999 RMK AO2 T01680164 =
2018-08-19 04:35 METAR KIKK 190935Z AUTO 00000KT M1/4SM FG OVC002 17/17 A2999 RMK AO2 T01700166 =
2018-08-19 04:15 METAR KIKK 190915Z AUTO 00000KT 1/2SM FG OVC002 16/16 A2999 RMK AO2 T01640160 =
2018-08-19 03:55 METAR KIKK 190855Z AUTO 00000KT 1/4SM FG OVC002 17/16 A2999 RMK AO2 T01650161 =
2018-08-19 03:35 METAR KIKK 190835Z AUTO 00000KT 4SM BR BKN002 BKN005 17/16 A2999 RMK AO2
                 T01670163 =
2018-08-19 03:15 METAR KIKK 190815Z AUTO 00000KT 10SM CLR 16/16 A2999 RMK AO2 T01590155 =
2018-08-19 02:55 METAR KIKK 190755Z AUTO 00000KT 10SM CLR 18/17 A2999 RMK AO2 T01760170 =
2018-08-19 02:35 METAR KIKK 190735Z AUTO 00000KT 10SM CLR 17/16 A3000 RMK AO2 T01670164 =
2018-08-19 02:15 METAR KIKK 190715Z AUTO 00000KT 10SM CLR 18/17 A2999 RMK AO2 T01760171 =
2018-08-19 01:55 METAR KIKK 190655Z AUTO 00000KT 10SM CLR 18/18 A3000 RMK AO2 T01800175 =
2018-08-19 01:35 METAR KIKK 190635Z AUTO 00000KT 7SM CLR 18/18 A3000 RMK AO2 T01840180 =
2018-08-19 01:15 METAR KIKK 190615Z AUTO 00000KT 1 1/2SM BR VV007 17/17 A2999 RMK AO2 VIS 1/4V5
                 T01710168 =
2018-08-19 00:55 METAR KIKK 190555Z AUTO 00000KT 10SM CLR 19/18 A3000 RMK AO2 T01850181 10243
                 20178 402850178 =
2018-08-19 00:35 METAR KIKK 190535Z AUTO 00000KT 10SM CLR 18/18 A3000 RMK AO2 T01820179 =

Support USWX by starting your Amazon purchase here.